sensor_id;sensor_type;location;lat;lon;timestamp;temperature;humidity
11454;DHT22;5783;55.174;61.310;2023-01-26T00:00:13;14.90;29.60
11454;DHT22;5783;55.174;61.310;2023-01-26T00:02:42;14.90;29.60
11454;DHT22;5783;55.174;61.310;2023-01-26T00:05:12;14.90;29.50
11454;DHT22;5783;55.174;61.310;2023-01-26T00:07:41;15.00;29.50
11454;DHT22;5783;55.174;61.310;2023-01-26T00:10:11;15.00;29.50
11454;DHT22;5783;55.174;61.310;2023-01-26T00:12:40;14.90;29.50
11454;DHT22;5783;55.174;61.310;2023-01-26T00:17:41;14.90;29.50
11454;DHT22;5783;55.174;61.310;2023-01-26T00:20:11;14.80;29.30
11454;DHT22;5783;55.174;61.310;2023-01-26T00:22:41;14.80;29.40
11454;DHT22;5783;55.174;61.310;2023-01-26T00:25:10;14.80;29.30
11454;DHT22;5783;55.174;61.310;2023-01-26T00:27:39;14.80;29.40
11454;DHT22;5783;55.174;61.310;2023-01-26T00:30:08;14.90;29.40
11454;DHT22;5783;55.174;61.310;2023-01-26T00:32:38;14.90;29.30
11454;DHT22;5783;55.174;61.310;2023-01-26T00:35:07;14.90;29.30
11454;DHT22;5783;55.174;61.310;2023-01-26T00:37:37;14.90;29.30
11454;DHT22;5783;55.174;61.310;2023-01-26T00:40:08;14.80;29.40
11454;DHT22;5783;55.174;61.310;2023-01-26T00:42:38;14.70;29.30
11454;DHT22;5783;55.174;61.310;2023-01-26T00:45:07;14.80;29.40
11454;DHT22;5783;55.174;61.310;2023-01-26T00:47:37;14.80;29.30
11454;DHT22;5783;55.174;61.310;2023-01-26T00:50:06;14.80;29.30
11454;DHT22;5783;55.174;61.310;2023-01-26T00:52:36;14.80;29.30
11454;DHT22;5783;55.174;61.310;2023-01-26T00:55:05;14.90;29.30
11454;DHT22;5783;55.174;61.310;2023-01-26T00:57:34;14.80;29.20
11454;DHT22;5783;55.174;61.310;2023-01-26T01:00:05;14.80;29.10
11454;DHT22;5783;55.174;61.310;2023-01-26T01:02:36;14.70;29.30
11454;DHT22;5783;55.174;61.310;2023-01-26T01:05:05;14.70;29.30
11454;DHT22;5783;55.174;61.310;2023-01-26T01:07:34;14.70;29.20
11454;DHT22;5783;55.174;61.310;2023-01-26T01:10:03;14.70;29.30
11454;DHT22;5783;55.174;61.310;2023-01-26T01:15:05;14.70;29.30
11454;DHT22;5783;55.174;61.310;2023-01-26T01:17:34;14.60;29.20
11454;DHT22;5783;55.174;61.310;2023-01-26T01:20:05;14.70;29.30
11454;DHT22;5783;55.174;61.310;2023-01-26T01:22:35;14.70;29.40
11454;DHT22;5783;55.174;61.310;2023-01-26T01:25:07;14.70;29.40
11454;DHT22;5783;55.174;61.310;2023-01-26T01:27:36;14.70;29.40
11454;DHT22;5783;55.174;61.310;2023-01-26T01:30:06;14.60;29.40
11454;DHT22;5783;55.174;61.310;2023-01-26T01:32:35;14.60;29.30
11454;DHT22;5783;55.174;61.310;2023-01-26T01:35:24;14.60;29.20
11454;DHT22;5783;55.174;61.310;2023-01-26T01:37:54;14.70;29.10
11454;DHT22;5783;55.174;61.310;2023-01-26T01:40:23;14.70;29.10
11454;DHT22;5783;55.174;61.310;2023-01-26T01:42:52;14.70;29.10
11454;DHT22;5783;55.174;61.310;2023-01-26T01:45:42;14.70;29.00
11454;DHT22;5783;55.174;61.310;2023-01-26T01:54:13;14.70;29.00
11454;DHT22;5783;55.174;61.310;2023-01-26T01:56:45;14.60;28.90
11454;DHT22;5783;55.174;61.310;2023-01-26T01:59:15;14.70;28.80
11454;DHT22;5783;55.174;61.310;2023-01-26T02:01:48;14.60;28.80
11454;DHT22;5783;55.174;61.310;2023-01-26T02:04:19;14.60;28.40
11454;DHT22;5783;55.174;61.310;2023-01-26T02:07:09;14.50;28.90
11454;DHT22;5783;55.174;61.310;2023-01-26T02:09:40;14.40;29.20
11454;DHT22;5783;55.174;61.310;2023-01-26T02:12:30;14.30;29.20
11454;DHT22;5783;55.174;61.310;2023-01-26T02:15:02;14.40;29.10
11454;DHT22;5783;55.174;61.310;2023-01-26T02:17:33;14.30;29.20
11454;DHT22;5783;55.174;61.310;2023-01-26T02:26:38;14.40;29.40
11454;DHT22;5783;55.174;61.310;2023-01-26T02:29:09;14.40;29.40
11454;DHT22;5783;55.174;61.310;2023-01-26T02:31:39;14.50;29.40
11454;DHT22;5783;55.174;61.310;2023-01-26T02:34:09;14.60;29.40
11454;DHT22;5783;55.174;61.310;2023-01-26T02:36:38;14.70;29.30
11454;DHT22;5783;55.174;61.310;2023-01-26T02:42:00;14.90;29.00
11454;DHT22;5783;55.174;61.310;2023-01-26T02:44:48;15.00;28.70
11454;DHT22;5783;55.174;61.310;2023-01-26T02:47:18;15.00;28.60
11454;DHT22;5783;55.174;61.310;2023-01-26T02:49:47;15.00;28.40
11454;DHT22;5783;55.174;61.310;2023-01-26T02:52:36;15.00;28.50
11454;DHT22;5783;55.174;61.310;2023-01-26T02:55:07;15.00;28.60
11454;DHT22;5783;55.174;61.310;2023-01-26T02:58:15;14.90;28.40
11454;DHT22;5783;55.174;61.310;2023-01-26T03:00:44;14.90;28.50
11454;DHT22;5783;55.174;61.310;2023-01-26T03:06:23;14.80;28.70
11454;DHT22;5783;55.174;61.310;2023-01-26T03:08:52;14.70;28.70
11454;DHT22;5783;55.174;61.310;2023-01-26T03:11:21;14.80;28.80
11454;DHT22;5783;55.174;61.310;2023-01-26T03:13:52;14.80;28.60
11454;DHT22;5783;55.174;61.310;2023-01-26T03:16:21;14.70;28.70
11454;DHT22;5783;55.174;61.310;2023-01-26T03:18:50;14.60;28.80
11454;DHT22;5783;55.174;61.310;2023-01-26T03:21:39;14.60;28.90
11454;DHT22;5783;55.174;61.310;2023-01-26T03:24:27;14.50;29.00
11454;DHT22;5783;55.174;61.310;2023-01-26T03:27:16;14.40;29.20
11454;DHT22;5783;55.174;61.310;2023-01-26T03:30:05;14.40;29.30
11454;DHT22;5783;55.174;61.310;2023-01-26T03:32:34;14.40;29.40
11454;DHT22;5783;55.174;61.310;2023-01-26T03:35:04;14.40;29.30
11454;DHT22;5783;55.174;61.310;2023-01-26T03:38:09;14.40;29.30
11454;DHT22;5783;55.174;61.310;2023-01-26T03:40:10;14.40;29.30
11454;DHT22;5783;55.174;61.310;2023-01-26T03:43:05;14.40;29.30
11454;DHT22;5783;55.174;61.310;2023-01-26T03:45:52;14.40;29.30
11454;DHT22;5783;55.174;61.310;2023-01-26T03:48:41;14.40;29.30
11454;DHT22;5783;55.174;61.310;2023-01-26T03:51:29;14.50;29.30
11454;DHT22;5783;55.174;61.310;2023-01-26T03:54:18;14.50;29.30
11454;DHT22;5783;55.174;61.310;2023-01-26T03:57:07;14.50;29.30
11454;DHT22;5783;55.174;61.310;2023-01-26T03:59:56;14.50;29.30
11454;DHT22;5783;55.174;61.310;2023-01-26T04:02:25;14.50;29.30
11454;DHT22;5783;55.174;61.310;2023-01-26T04:05:13;14.50;29.20
11454;DHT22;5783;55.174;61.310;2023-01-26T04:08:04;14.50;29.20
11454;DHT22;5783;55.174;61.310;2023-01-26T04:10:54;14.60;29.00
11454;DHT22;5783;55.174;61.310;2023-01-26T04:13:23;14.60;29.00
11454;DHT22;5783;55.174;61.310;2023-01-26T04:16:12;14.50;29.00
11454;DHT22;5783;55.174;61.310;2023-01-26T04:19:01;14.50;29.00
11454;DHT22;5783;55.174;61.310;2023-01-26T04:21:49;14.50;29.10
11454;DHT22;5783;55.174;61.310;2023-01-26T04:24:19;14.50;29.00
11454;DHT22;5783;55.174;61.310;2023-01-26T04:26:48;14.50;29.00
11454;DHT22;5783;55.174;61.310;2023-01-26T04:29:17;14.50;28.70
11454;DHT22;5783;55.174;61.310;2023-01-26T04:31:46;14.80;28.40
11454;DHT22;5783;55.174;61.310;2023-01-26T04:34:15;14.90;28.10
11454;DHT22;5783;55.174;61.310;2023-01-26T04:36:44;15.00;28.20
11454;DHT22;5783;55.174;61.310;2023-01-26T04:39:13;15.00;27.90
11454;DHT22;5783;55.174;61.310;2023-01-26T04:41:43;15.10;27.90
11454;DHT22;5783;55.174;61.310;2023-01-26T04:44:12;15.00;26.90
11454;DHT22;5783;55.174;61.310;2023-01-26T04:46:42;15.20;26.60
11454;DHT22;5783;55.174;61.310;2023-01-26T04:49:13;15.50;26.20
11454;DHT22;5783;55.174;61.310;2023-01-26T04:51:42;15.70;25.90
11454;DHT22;5783;55.174;61.310;2023-01-26T04:54:11;15.70;25.70
11454;DHT22;5783;55.174;61.310;2023-01-26T04:56:40;15.70;25.80
11454;DHT22;5783;55.174;61.310;2023-01-26T04:59:10;15.80;26.20
11454;DHT22;5783;55.174;61.310;2023-01-26T05:01:40;15.90;25.80
11454;DHT22;5783;55.174;61.310;2023-01-26T05:04:11;16.00;25.90
11454;DHT22;5783;55.174;61.310;2023-01-26T05:06:40;16.10;25.20
11454;DHT22;5783;55.174;61.310;2023-01-26T05:09:10;16.00;24.60
11454;DHT22;5783;55.174;61.310;2023-01-26T05:11:39;15.90;24.70
11454;DHT22;5783;55.174;61.310;2023-01-26T05:14:08;15.70;24.60
11454;DHT22;5783;55.174;61.310;2023-01-26T05:16:37;15.50;24.80
11454;DHT22;5783;55.174;61.310;2023-01-26T05:19:06;15.40;25.20
11454;DHT22;5783;55.174;61.310;2023-01-26T05:24:24;15.40;25.40
11454;DHT22;5783;55.174;61.310;2023-01-26T05:26:53;15.40;25.20
11454;DHT22;5783;55.174;61.310;2023-01-26T05:29:24;15.40;25.10
11454;DHT22;5783;55.174;61.310;2023-01-26T05:31:53;15.30;25.20
11454;DHT22;5783;55.174;61.310;2023-01-26T05:34:22;15.40;25.70
11454;DHT22;5783;55.174;61.310;2023-01-26T05:36:51;15.40;26.00
11454;DHT22;5783;55.174;61.310;2023-01-26T05:39:21;15.50;25.70
11454;DHT22;5783;55.174;61.310;2023-01-26T05:41:50;15.50;25.90
11454;DHT22;5783;55.174;61.310;2023-01-26T05:44:21;15.60;26.00
11454;DHT22;5783;55.174;61.310;2023-01-26T05:47:10;15.70;25.50
11454;DHT22;5783;55.174;61.310;2023-01-26T05:49:41;15.90;25.50
11454;DHT22;5783;55.174;61.310;2023-01-26T05:52:14;15.90;25.20
11454;DHT22;5783;55.174;61.310;2023-01-26T05:54:44;16.00;25.00
11454;DHT22;5783;55.174;61.310;2023-01-26T05:57:13;16.20;25.10
11454;DHT22;5783;55.174;61.310;2023-01-26T05:59:43;16.30;24.70
11454;DHT22;5783;55.174;61.310;2023-01-26T06:02:48;16.40;24.80
11454;DHT22;5783;55.174;61.310;2023-01-26T06:04:44;16.40;24.40
11454;DHT22;5783;55.174;61.310;2023-01-26T06:07:13;16.30;24.50
11454;DHT22;5783;55.174;61.310;2023-01-26T06:09:44;16.30;24.80
11454;DHT22;5783;55.174;61.310;2023-01-26T06:14:46;16.10;24.60
11454;DHT22;5783;55.174;61.310;2023-01-26T06:17:16;16.20;24.40
11454;DHT22;5783;55.174;61.310;2023-01-26T06:19:45;16.10;24.10
11454;DHT22;5783;55.174;61.310;2023-01-26T06:22:14;16.00;24.20
11454;DHT22;5783;55.174;61.310;2023-01-26T06:24:44;15.80;24.30
11454;DHT22;5783;55.174;61.310;2023-01-26T06:27:15;15.60;24.30
11454;DHT22;5783;55.174;61.310;2023-01-26T06:29:45;15.50;24.90
11454;DHT22;5783;55.174;61.310;2023-01-26T06:32:14;15.60;24.50
11454;DHT22;5783;55.174;61.310;2023-01-26T06:34:44;15.50;24.60
11454;DHT22;5783;55.174;61.310;2023-01-26T06:37:13;15.30;25.40
11454;DHT22;5783;55.174;61.310;2023-01-26T06:39:42;15.00;25.60
11454;DHT22;5783;55.174;61.310;2023-01-26T06:42:11;14.80;25.90
11454;DHT22;5783;55.174;61.310;2023-01-26T06:44:40;14.90;26.50
11454;DHT22;5783;55.174;61.310;2023-01-26T06:47:11;15.10;25.80
11454;DHT22;5783;55.174;61.310;2023-01-26T06:49:40;15.10;25.50
11454;DHT22;5783;55.174;61.310;2023-01-26T06:52:30;15.10;25.40
11454;DHT22;5783;55.174;61.310;2023-01-26T06:54:59;15.00;25.70
11454;DHT22;5783;55.174;61.310;2023-01-26T07:00:20;15.00;26.20
11454;DHT22;5783;55.174;61.310;2023-01-26T07:02:49;15.30;25.90
11454;DHT22;5783;55.174;61.310;2023-01-26T07:05:19;15.50;25.30
11454;DHT22;5783;55.174;61.310;2023-01-26T07:07:48;15.50;25.50
11454;DHT22;5783;55.174;61.310;2023-01-26T07:10:17;15.60;25.80
11454;DHT22;5783;55.174;61.310;2023-01-26T07:12:46;15.70;25.50
11454;DHT22;5783;55.174;61.310;2023-01-26T07:15:15;15.80;25.40
11454;DHT22;5783;55.174;61.310;2023-01-26T07:17:44;15.80;25.40
11454;DHT22;5783;55.174;61.310;2023-01-26T07:20:14;15.80;25.00
11454;DHT22;5783;55.174;61.310;2023-01-26T07:22:43;15.90;25.10
11454;DHT22;5783;55.174;61.310;2023-01-26T07:25:15;16.00;25.00
11454;DHT22;5783;55.174;61.310;2023-01-26T07:27:44;16.00;24.90
11454;DHT22;5783;55.174;61.310;2023-01-26T07:30:15;16.10;25.40
11454;DHT22;5783;55.174;61.310;2023-01-26T07:32:44;16.20;25.50
11454;DHT22;5783;55.174;61.310;2023-01-26T07:35:14;16.20;25.90
11454;DHT22;5783;55.174;61.310;2023-01-26T07:37:43;16.20;26.10
11454;DHT22;5783;55.174;61.310;2023-01-26T07:40:12;16.20;25.70
11454;DHT22;5783;55.174;61.310;2023-01-26T07:42:42;16.30;25.90
11454;DHT22;5783;55.174;61.310;2023-01-26T07:48:02;16.20;25.80
11454;DHT22;5783;55.174;61.310;2023-01-26T07:50:31;16.00;25.50
11454;DHT22;5783;55.174;61.310;2023-01-26T07:53:01;15.90;25.60
11454;DHT22;5783;55.174;61.310;2023-01-26T07:55:30;15.70;25.80
11454;DHT22;5783;55.174;61.310;2023-01-26T07:58:33;15.60;26.10
11454;DHT22;5783;55.174;61.310;2023-01-26T08:00:30;15.80;26.20
11454;DHT22;5783;55.174;61.310;2023-01-26T08:02:59;15.80;26.10
11454;DHT22;5783;55.174;61.310;2023-01-26T08:05:28;15.90;26.10
11454;DHT22;5783;55.174;61.310;2023-01-26T08:07:58;16.00;25.90
11454;DHT22;5783;55.174;61.310;2023-01-26T08:10:29;16.00;25.80
11454;DHT22;5783;55.174;61.310;2023-01-26T08:12:59;16.10;25.90
11454;DHT22;5783;55.174;61.310;2023-01-26T08:15:28;16.20;25.60
11454;DHT22;5783;55.174;61.310;2023-01-26T08:17:58;16.20;25.50
11454;DHT22;5783;55.174;61.310;2023-01-26T08:20:29;16.30;25.40
11454;DHT22;5783;55.174;61.310;2023-01-26T08:22:58;16.40;25.00
11454;DHT22;5783;55.174;61.310;2023-01-26T08:25:27;16.40;25.00
11454;DHT22;5783;55.174;61.310;2023-01-26T08:28:30;16.30;25.10
11454;DHT22;5783;55.174;61.310;2023-01-26T08:30:29;16.40;25.10
11454;DHT22;5783;55.174;61.310;2023-01-26T08:32:58;16.30;24.90
11454;DHT22;5783;55.174;61.310;2023-01-26T08:35:27;16.30;24.60
11454;DHT22;5783;55.174;61.310;2023-01-26T08:37:56;16.30;25.40
11454;DHT22;5783;55.174;61.310;2023-01-26T08:40:26;16.30;25.30
11454;DHT22;5783;55.174;61.310;2023-01-26T08:42:55;16.20;25.30
11454;DHT22;5783;55.174;61.310;2023-01-26T08:45:25;16.30;25.10
11454;DHT22;5783;55.174;61.310;2023-01-26T08:47:54;16.30;25.00
11454;DHT22;5783;55.174;61.310;2023-01-26T08:50:24;16.30;24.50
11454;DHT22;5783;55.174;61.310;2023-01-26T08:52:54;16.20;24.70
11454;DHT22;5783;55.174;61.310;2023-01-26T08:57:55;15.90;24.60
11454;DHT22;5783;55.174;61.310;2023-01-26T09:00:24;15.80;25.00
11454;DHT22;5783;55.174;61.310;2023-01-26T09:03:13;15.70;25.20
11454;DHT22;5783;55.174;61.310;2023-01-26T09:05:42;15.80;25.20
11454;DHT22;5783;55.174;61.310;2023-01-26T09:08:11;15.80;25.20
11454;DHT22;5783;55.174;61.310;2023-01-26T09:10:42;15.90;25.20
11454;DHT22;5783;55.174;61.310;2023-01-26T09:13:11;15.90;25.30
11454;DHT22;5783;55.174;61.310;2023-01-26T09:15:40;15.90;25.20
11454;DHT22;5783;55.174;61.310;2023-01-26T09:18:10;15.90;25.40
11454;DHT22;5783;55.174;61.310;2023-01-26T09:20:40;15.90;25.70
11454;DHT22;5783;55.174;61.310;2023-01-26T09:23:10;16.00;26.20
11454;DHT22;5783;55.174;61.310;2023-01-26T09:25:43;16.00;25.80
11454;DHT22;5783;55.174;61.310;2023-01-26T09:28:12;16.20;26.00
11454;DHT22;5783;55.174;61.310;2023-01-26T09:30:41;16.40;25.80
11454;DHT22;5783;55.174;61.310;2023-01-26T09:33:10;16.50;25.70
11454;DHT22;5783;55.174;61.310;2023-01-26T09:38:10;16.50;25.00
11454;DHT22;5783;55.174;61.310;2023-01-26T09:43:50;16.50;25.40
11454;DHT22;5783;55.174;61.310;2023-01-26T09:53:14;16.10;25.00
11454;DHT22;5783;55.174;61.310;2023-01-26T09:55:13;16.00;26.30
11454;DHT22;5783;55.174;61.310;2023-01-26T09:58:02;16.00;25.80
11454;DHT22;5783;55.174;61.310;2023-01-26T10:00:53;15.80;25.80
11454;DHT22;5783;55.174;61.310;2023-01-26T10:06:31;15.80;25.30
11454;DHT22;5783;55.174;61.310;2023-01-26T10:12:28;15.60;26.00
11454;DHT22;5783;55.174;61.310;2023-01-26T10:17:37;15.50;26.00
11454;DHT22;5783;55.174;61.310;2023-01-26T10:20:26;15.50;26.30
11454;DHT22;5783;55.174;61.310;2023-01-26T10:23:00;15.60;26.60
11454;DHT22;5783;55.174;61.310;2023-01-26T10:28:40;15.90;27.00
11454;DHT22;5783;55.174;61.310;2023-01-26T10:39:23;16.70;26.20
11454;DHT22;5783;55.174;61.310;2023-01-26T10:42:12;16.80;25.70
11454;DHT22;5783;55.174;61.310;2023-01-26T10:44:43;16.80;25.40
11454;DHT22;5783;55.174;61.310;2023-01-26T10:47:33;16.70;25.10
11454;DHT22;5783;55.174;61.310;2023-01-26T10:50:23;16.70;25.10
11454;DHT22;5783;55.174;61.310;2023-01-26T10:53:45;16.70;25.00
11454;DHT22;5783;55.174;61.310;2023-01-26T10:55:43;16.80;24.80
11454;DHT22;5783;55.174;61.310;2023-01-26T11:04:12;16.70;24.40
11454;DHT22;5783;55.174;61.310;2023-01-26T11:06:41;16.50;24.90
11454;DHT22;5783;55.174;61.310;2023-01-26T11:09:30;16.40;25.30
11454;DHT22;5783;55.174;61.310;2023-01-26T11:12:19;16.40;25.20
11454;DHT22;5783;55.174;61.310;2023-01-26T11:33:49;16.30;25.40
11454;DHT22;5783;55.174;61.310;2023-01-26T11:42:05;16.20;25.30
11454;DHT22;5783;55.174;61.310;2023-01-26T11:48:16;16.00;24.90
11454;DHT22;5783;55.174;61.310;2023-01-26T12:02:17;15.60;25.20
11454;DHT22;5783;55.174;61.310;2023-01-26T12:04:43;15.60;25.30
11454;DHT22;5783;55.174;61.310;2023-01-26T12:10:07;15.80;25.20
11454;DHT22;5783;55.174;61.310;2023-01-26T12:12:40;15.80;24.70
11454;DHT22;5783;55.174;61.310;2023-01-26T12:15:32;15.70;25.00
11454;DHT22;5783;55.174;61.310;2023-01-26T12:18:22;15.70;24.50
11454;DHT22;5783;55.174;61.310;2023-01-26T12:21:11;15.50;25.30
11454;DHT22;5783;55.174;61.310;2023-01-26T12:24:00;15.40;25.10
11454;DHT22;5783;55.174;61.310;2023-01-26T12:26:34;15.40;25.00
11454;DHT22;5783;55.174;61.310;2023-01-26T12:32:14;15.20;25.00
11454;DHT22;5783;55.174;61.310;2023-01-26T12:34:43;15.10;25.00
11454;DHT22;5783;55.174;61.310;2023-01-26T12:46:21;15.50;25.40
11454;DHT22;5783;55.174;61.310;2023-01-26T12:51:45;15.20;25.30
11454;DHT22;5783;55.174;61.310;2023-01-26T12:54:17;15.20;25.40
11454;DHT22;5783;55.174;61.310;2023-01-26T13:02:29;15.30;25.50
11454;DHT22;5783;55.174;61.310;2023-01-26T13:05:01;15.20;25.60
11454;DHT22;5783;55.174;61.310;2023-01-26T13:07:35;15.20;25.30
11454;DHT22;5783;55.174;61.310;2023-01-26T13:10:26;15.20;25.30
11454;DHT22;5783;55.174;61.310;2023-01-26T13:18:56;15.10;25.20
11454;DHT22;5783;55.174;61.310;2023-01-26T13:21:45;15.10;24.90
11454;DHT22;5783;55.174;61.310;2023-01-26T13:27:16;14.80;25.10
11454;DHT22;5783;55.174;61.310;2023-01-26T13:29:50;14.80;25.40
11454;DHT22;5783;55.174;61.310;2023-01-26T13:35:00;14.80;25.60
11454;DHT22;5783;55.174;61.310;2023-01-26T13:40:59;14.80;25.70
11454;DHT22;5783;55.174;61.310;2023-01-26T13:52:21;14.70;25.50
11454;DHT22;5783;55.174;61.310;2023-01-26T13:54:53;14.60;25.60
11454;DHT22;5783;55.174;61.310;2023-01-26T13:57:44;14.60;25.70
11454;DHT22;5783;55.174;61.310;2023-01-26T14:00:16;14.60;25.80
11454;DHT22;5783;55.174;61.310;2023-01-26T14:02:47;14.50;25.80
11454;DHT22;5783;55.174;61.310;2023-01-26T14:05:36;14.50;25.80
11454;DHT22;5783;55.174;61.310;2023-01-26T14:08:05;14.50;26.20
11454;DHT22;5783;55.174;61.310;2023-01-26T14:10:40;14.70;26.10
11454;DHT22;5783;55.174;61.310;2023-01-26T14:13:06;14.90;25.90
11454;DHT22;5783;55.174;61.310;2023-01-26T14:15:37;15.00;25.60
11454;DHT22;5783;55.174;61.310;2023-01-26T14:18:13;15.00;25.40
11454;DHT22;5783;55.174;61.310;2023-01-26T14:20:39;15.10;25.30
11454;DHT22;5783;55.174;61.310;2023-01-26T14:24:00;15.10;25.20
11454;DHT22;5783;55.174;61.310;2023-01-26T14:28:50;15.00;25.50
11454;DHT22;5783;55.174;61.310;2023-01-26T14:31:22;15.10;25.30
11454;DHT22;5783;55.174;61.310;2023-01-26T14:34:28;15.20;25.70
11454;DHT22;5783;55.174;61.310;2023-01-26T14:38:58;14.90;24.90
11454;DHT22;5783;55.174;61.310;2023-01-26T14:41:29;14.70;25.20
11454;DHT22;5783;55.174;61.310;2023-01-26T14:43:59;14.40;25.70
11454;DHT22;5783;55.174;61.310;2023-01-26T14:52:31;14.10;25.80
11454;DHT22;5783;55.174;61.310;2023-01-26T14:55:05;13.90;25.60
11454;DHT22;5783;55.174;61.310;2023-01-26T14:57:35;13.90;25.50
11454;DHT22;5783;55.174;61.310;2023-01-26T15:00:05;13.90;25.70
11454;DHT22;5783;55.174;61.310;2023-01-26T15:02:39;13.90;25.70
11454;DHT22;5783;55.174;61.310;2023-01-26T15:08:19;13.90;26.50
11454;DHT22;5783;55.174;61.310;2023-01-26T15:11:09;13.80;26.90
11454;DHT22;5783;55.174;61.310;2023-01-26T15:13:58;13.80;27.80
11454;DHT22;5783;55.174;61.310;2023-01-26T15:16:27;13.80;28.30
11454;DHT22;5783;55.174;61.310;2023-01-26T15:19:21;13.90;28.40
11454;DHT22;5783;55.174;61.310;2023-01-26T15:21:46;13.90;28.40
11454;DHT22;5783;55.174;61.310;2023-01-26T15:24:16;13.90;28.40
11454;DHT22;5783;55.174;61.310;2023-01-26T15:26:45;13.80;29.10
11454;DHT22;5783;55.174;61.310;2023-01-26T15:32:24;13.90;28.40
11454;DHT22;5783;55.174;61.310;2023-01-26T15:34:39;13.90;28.40
11454;DHT22;5783;55.174;61.310;2023-01-26T15:37:29;14.00;28.20
11454;DHT22;5783;55.174;61.310;2023-01-26T15:39:59;14.00;28.50
11454;DHT22;5783;55.174;61.310;2023-01-26T15:42:29;14.00;28.60
11454;DHT22;5783;55.174;61.310;2023-01-26T15:44:59;14.00;28.60
11454;DHT22;5783;55.174;61.310;2023-01-26T15:47:28;14.00;28.70
11454;DHT22;5783;55.174;61.310;2023-01-26T15:49:57;14.00;28.80
11454;DHT22;5783;55.174;61.310;2023-01-26T15:52:28;14.00;28.50
11454;DHT22;5783;55.174;61.310;2023-01-26T15:55:04;14.00;28.60
11454;DHT22;5783;55.174;61.310;2023-01-26T15:57:51;14.00;28.60
11454;DHT22;5783;55.174;61.310;2023-01-26T16:00:20;14.10;28.70
11454;DHT22;5783;55.174;61.310;2023-01-26T16:02:50;14.10;28.80
11454;DHT22;5783;55.174;61.310;2023-01-26T16:05:21;14.10;28.80
11454;DHT22;5783;55.174;61.310;2023-01-26T16:07:51;14.20;29.00
11454;DHT22;5783;55.174;61.310;2023-01-26T16:10:20;14.20;28.90
11454;DHT22;5783;55.174;61.310;2023-01-26T16:12:49;14.20;28.80
11454;DHT22;5783;55.174;61.310;2023-01-26T16:15:39;14.20;28.80
11454;DHT22;5783;55.174;61.310;2023-01-26T16:18:09;14.30;28.50
11454;DHT22;5783;55.174;61.310;2023-01-26T16:20:41;14.30;28.60
11454;DHT22;5783;55.174;61.310;2023-01-26T16:26:00;14.30;28.70
11454;DHT22;5783;55.174;61.310;2023-01-26T16:28:30;14.30;28.60
11454;DHT22;5783;55.174;61.310;2023-01-26T16:31:00;14.30;28.60
11454;DHT22;5783;55.174;61.310;2023-01-26T16:33:30;14.30;28.80
11454;DHT22;5783;55.174;61.310;2023-01-26T16:35:59;14.40;28.90
11454;DHT22;5783;55.174;61.310;2023-01-26T16:38:28;14.40;28.80
11454;DHT22;5783;55.174;61.310;2023-01-26T16:40:57;14.50;28.50
11454;DHT22;5783;55.174;61.310;2023-01-26T16:43:26;14.50;28.50
11454;DHT22;5783;55.174;61.310;2023-01-26T16:45:56;14.50;28.30
11454;DHT22;5783;55.174;61.310;2023-01-26T16:48:25;14.50;28.40
11454;DHT22;5783;55.174;61.310;2023-01-26T16:50:56;14.50;28.60
11454;DHT22;5783;55.174;61.310;2023-01-26T16:53:27;14.50;28.70
11454;DHT22;5783;55.174;61.310;2023-01-26T16:55:59;14.50;28.60
11454;DHT22;5783;55.174;61.310;2023-01-26T16:58:28;14.50;28.60
11454;DHT22;5783;55.174;61.310;2023-01-26T17:00:58;14.50;28.50
11454;DHT22;5783;55.174;61.310;2023-01-26T17:03:28;14.50;28.70
11454;DHT22;5783;55.174;61.310;2023-01-26T17:05:57;14.50;28.70
11454;DHT22;5783;55.174;61.310;2023-01-26T17:08:26;14.50;28.60
11454;DHT22;5783;55.174;61.310;2023-01-26T17:10:55;14.60;28.70
11454;DHT22;5783;55.174;61.310;2023-01-26T17:13:24;14.60;28.70
11454;DHT22;5783;55.174;61.310;2023-01-26T17:15:55;14.60;28.80
11454;DHT22;5783;55.174;61.310;2023-01-26T17:18:25;14.60;28.90
11454;DHT22;5783;55.174;61.310;2023-01-26T17:21:28;14.60;28.90
11454;DHT22;5783;55.174;61.310;2023-01-26T17:23:28;14.60;28.70
11454;DHT22;5783;55.174;61.310;2023-01-26T17:25:58;14.60;28.90
11454;DHT22;5783;55.174;61.310;2023-01-26T17:28:27;14.60;28.80
11454;DHT22;5783;55.174;61.310;2023-01-26T17:30:57;14.60;28.80
11454;DHT22;5783;55.174;61.310;2023-01-26T17:33:28;14.60;28.80
11454;DHT22;5783;55.174;61.310;2023-01-26T17:36:17;14.60;28.50
11454;DHT22;5783;55.174;61.310;2023-01-26T17:38:47;14.60;28.50
11454;DHT22;5783;55.174;61.310;2023-01-26T17:41:17;14.60;28.60
11454;DHT22;5783;55.174;61.310;2023-01-26T17:43:46;14.60;28.70
11454;DHT22;5783;55.174;61.310;2023-01-26T17:46:36;14.60;28.80
11454;DHT22;5783;55.174;61.310;2023-01-26T17:49:05;14.60;28.70
11454;DHT22;5783;55.174;61.310;2023-01-26T17:51:34;14.60;28.80
11454;DHT22;5783;55.174;61.310;2023-01-26T17:54:04;14.60;29.00
11454;DHT22;5783;55.174;61.310;2023-01-26T17:56:33;14.60;29.10
11454;DHT22;5783;55.174;61.310;2023-01-26T17:59:02;14.70;29.10
11454;DHT22;5783;55.174;61.310;2023-01-26T18:01:31;14.80;29.00
11454;DHT22;5783;55.174;61.310;2023-01-26T18:04:00;14.90;29.00
11454;DHT22;5783;55.174;61.310;2023-01-26T18:06:30;14.90;29.00
11454;DHT22;5783;55.174;61.310;2023-01-26T18:09:00;14.90;28.80
11454;DHT22;5783;55.174;61.310;2023-01-26T18:11:29;14.90;28.90
11454;DHT22;5783;55.174;61.310;2023-01-26T18:13:58;15.00;28.80
11454;DHT22;5783;55.174;61.310;2023-01-26T18:16:29;15.00;28.60
11454;DHT22;5783;55.174;61.310;2023-01-26T18:18:58;15.00;28.70
11454;DHT22;5783;55.174;61.310;2023-01-26T18:21:30;15.10;28.70
11454;DHT22;5783;55.174;61.310;2023-01-26T18:24:02;15.00;28.60
11454;DHT22;5783;55.174;61.310;2023-01-26T18:26:34;15.00;28.60
11454;DHT22;5783;55.174;61.310;2023-01-26T18:29:05;15.00;28.50
11454;DHT22;5783;55.174;61.310;2023-01-26T18:31:36;15.10;28.40
11454;DHT22;5783;55.174;61.310;2023-01-26T18:34:07;15.10;28.40
11454;DHT22;5783;55.174;61.310;2023-01-26T18:36:36;15.10;28.50
11454;DHT22;5783;55.174;61.310;2023-01-26T18:39:08;15.20;28.60
11454;DHT22;5783;55.174;61.310;2023-01-26T18:41:37;15.10;28.70
11454;DHT22;5783;55.174;61.310;2023-01-26T18:44:08;15.10;28.80
11454;DHT22;5783;55.174;61.310;2023-01-26T18:46:37;15.10;28.70
11454;DHT22;5783;55.174;61.310;2023-01-26T18:49:07;15.10;28.60
11454;DHT22;5783;55.174;61.310;2023-01-26T18:51:37;15.10;28.80
11454;DHT22;5783;55.174;61.310;2023-01-26T18:54:07;15.10;29.00
11454;DHT22;5783;55.174;61.310;2023-01-26T18:56:37;15.00;29.10
11454;DHT22;5783;55.174;61.310;2023-01-26T18:59:06;15.00;29.10
11454;DHT22;5783;55.174;61.310;2023-01-26T19:01:37;15.00;29.10
11454;DHT22;5783;55.174;61.310;2023-01-26T19:04:06;15.00;29.10
11454;DHT22;5783;55.174;61.310;2023-01-26T19:06:35;15.00;29.20